Flight Track Log - Related Links

Times and Time Zones

All times are in EDT time to prevent confusion due to time zone crossing. See the N96CB flight status page for this flight to view local times or setup timezone preferences in your user account.

Time Position Orientation Groundspeed Altitude Reporting Facility
EDT Latitude Longitude Course Direction KTS MPH feet Rate Location/Type
Fri 04:05:01 PM 32.6833 -83.6833 320° Northwest 98 113 1,000  Level Atlanta TRACON
Fri 04:06:01 PM 32.7000 -83.7000 320° Northwest 97 112 1,600 700 Climbing Atlanta TRACON
Fri 04:07:01 PM 32.7000 -83.7333 270° West 101 116 2,400 700 Climbing Atlanta TRACON
Fri 04:08:01 PM 32.7167 -83.7667 301° West 94 108 3,000 600 Climbing Atlanta TRACON
Fri 04:09:01 PM 32.7167 -83.8000 270° West 97 112 3,600 645 Climbing Atlanta TRACON
Fri 04:10:02 PM 32.7167 -83.8333 270° West 97 112 4,300 694 Climbing Atlanta TRACON
Fri 04:11:02 PM 32.7333 -83.8667 301° West 99 114 5,000 700 Climbing Atlanta TRACON
Fri 04:12:02 PM 32.7333 -83.9000 270° West 94 108 5,700 600 Climbing Atlanta TRACON
Fri 04:13:02 PM 32.7500 -83.9167 320° Northwest 98 113 6,200 600 Climbing Atlanta TRACON
Fri 04:14:02 PM 32.7500 -83.9500 270° West 95 109 6,900 650 Climbing Atlanta TRACON
Fri 04:15:02 PM 32.7667 -83.9833 301° West 94 108 7,500 600 Climbing Atlanta TRACON
Fri 04:16:02 PM 32.7667 -84.0167 270° West 95 109 8,100 200 Climbing Atlanta TRACON
Fri 04:17:02 PM 32.7833 -84.0500 301° West 127 146 7,900 -100 Descending Atlanta TRACON
Fri 04:18:02 PM 32.8000 -84.0833 301° West 136 157 7,900  Level Atlanta TRACON
Fri 04:19:02 PM 32.8000 -84.1333 270° West 139 160 7,900  Level Atlanta TRACON
Fri 04:20:02 PM 32.8167 -84.1667 301° West 137 158 7,900  Level Atlanta TRACON
Fri 04:21:02 PM 32.8167 -84.2167 270° West 140 161 7,900  Level Atlanta TRACON
Fri 04:22:02 PM 32.8167 -84.2667 270° West 135 155 7,900  Level Atlanta TRACON
Fri 04:23:02 PM 32.8167 -84.3000 270° West 135 155 7,900  Level Atlanta TRACON
Fri 04:24:02 PM 32.8000 -84.3500 248° West 133 153 7,900  Level Atlanta TRACON
Fri 04:25:02 PM 32.7833 -84.3833 239° Southwest 132 152 7,900  Level Atlanta TRACON
Fri 04:26:02 PM 32.7667 -84.4333 248° West 136 157 7,900  Level Atlanta TRACON
Fri 04:27:02 PM 32.7667 -84.4667 270° West 135 155 7,900  Level Atlanta TRACON
Fri 04:28:02 PM 32.7667 -84.5167 270° West 140 161 7,900  Level Atlanta TRACON
Fri 04:29:02 PM 32.7500 -84.5667 248° West 137 158 7,900  Level Atlanta TRACON
Fri 04:30:02 PM 32.7500 -84.6167 270° West 141 162 7,900  Level Atlanta TRACON
Fri 04:30:56 PM 32.7500 -84.6500 270° West 140 161 7,900  Level Atlanta TRACON
Fri 04:32:02 PM 32.7500 -84.7000 270° West 149 171 7,900  Level Atlanta TRACON
Fri 04:33:02 PM 32.7667 -84.7500 292° West 144 166 7,900  Level Atlanta TRACON
Fri 04:34:02 PM 32.7833 -84.7833 301° West 149 171 7,900  Level Atlanta TRACON
Fri 04:35:02 PM 32.8000 -84.8333 292° West 146 168 7,900 53 Level Atlanta TRACON
Fri 04:35:56 PM 32.8333 -84.8667 320° Northwest 145 167 8,000  Climbing Atlanta TRACON
Fri 04:37:02 PM 32.8333 -84.9167 270° West 147 169 7,900 -48 Descending Atlanta TRACON
Fri 04:38:02 PM 32.8500 -84.9667 292° West 145 167 7,900  Level Atlanta TRACON
Fri 04:39:02 PM 32.8667 -85.0000 301° West 153 176 7,900 50 Level Atlanta TRACON
Fri 04:40:02 PM 32.9000 -85.0500 308° West 150 173 8,000 50 Climbing Atlanta TRACON
Fri 04:41:02 PM 32.9167 -85.0833 301° West 150 173 8,000 -50 Level Atlanta TRACON
Fri 04:42:02 PM 32.9500 -85.1167 320° Northwest 155 178 7,900 -50 Descending Atlanta TRACON
Fri 04:43:02 PM 32.9667 -85.1500 301° West 147 169 7,900 150 Level Atlanta TRACON
Fri 04:44:02 PM 33.0000 -85.2000 308° West 145 167 8,200 250 Climbing Atlanta TRACON
Fri 04:45:02 PM 33.0333 -85.2167 337° Northwest 140 161 8,400 368 Climbing Atlanta TRACON
Fri 04:45:56 PM 33.0500 -85.2500 301° West 131 151 8,900 277 Climbing Atlanta TRACON
Fri 04:47:12 PM 33.0675 -85.3056 291° West 134 154 9,000 88 Climbing Atlanta Center
Fri 04:48:12 PM 33.0881 -85.3431 303° West 140 161 9,100 -50 Climbing Atlanta Center
Fri 04:49:12 PM 33.1211 -85.3831 315° West 151 174 8,900 -250 Descending Atlanta Center
Fri 04:50:12 PM 33.1519 -85.4158 318° Northwest 162 186 8,600 -250 Descending Atlanta Center
Fri 04:51:12 PM 33.1914 -85.4489 325° Northwest 162 186 8,400 -200 Descending Atlanta Center
Fri 04:52:12 PM 33.2264 -85.4817 322° Northwest 167 192 8,200 -150 Descending Atlanta Center
Fri 04:53:12 PM 33.2553 -85.5119 319° Northwest 162 186 8,100 -50 Descending Atlanta Center
Fri 04:54:12 PM 33.2861 -85.5572 309° West 157 181 8,100 -50 Level Atlanta Center
Fri 04:55:12 PM 33.3128 -85.5975 308° West 151 174 8,000 -50 Descending Atlanta Center
Fri 04:56:12 PM 33.3350 -85.6375 304° West 151 174 8,000  Level Atlanta Center
Fri 04:57:12 PM 33.3597 -85.6778 306° West 151 174 8,000  Level Atlanta Center
Fri 04:58:12 PM 33.3819 -85.7181 303° West 151 174 8,000  Level Atlanta Center
Fri 04:59:12 PM 33.4067 -85.7558 308° West 151 174 8,000  Level Atlanta Center
Fri 05:00:12 PM 33.4289 -85.7961 303° West 151 174 8,000  Level Atlanta Center
Fri 05:01:12 PM 33.4514 -85.8314 307° West 146 168 8,000  Level Atlanta Center
Fri 05:02:12 PM 33.4739 -85.8717 304° West 146 168 8,000  Level Atlanta Center
Fri 05:03:12 PM 33.4983 -85.9097 308° West 146 168 8,000  Level Atlanta Center
Fri 05:04:19 PM 33.5225 -85.9550 303° West 144 166 8,000  Level Atlanta Center
Fri 05:05:12 PM 33.5450 -85.9856 311° West 146 168 8,000  Level Atlanta Center
Fri 05:06:12 PM 33.5694 -86.0233 308° West 146 168 8,000  Level Atlanta Center
Fri 05:07:12 PM 33.5919 -86.0589 307° West 151 174 8,000  Level Atlanta Center
Fri 05:08:12 PM 33.6228 -86.0919 318° Northwest 151 174 8,000  Level Atlanta Center
Fri 05:09:16 PM 33.6511 -86.1375 307° West 146 168 8,000  Level Atlanta Center
Fri 05:10:12 PM 33.6758 -86.1656 317° Northwest 151 174 8,000 52 Level Atlanta Center
Fri 05:11:12 PM 33.7044 -86.1986 316° Northwest 151 174 8,100 48 Climbing Atlanta Center
Fri 05:12:18 PM 33.7347 -86.2469 307° West 147 169 8,100  Level Atlanta Center
Fri 05:13:18 PM 33.7614 -86.2828 312° West 147 169 8,100  Level Atlanta Center
Fri 05:14:19 PM 33.7919 -86.3183 316° Northwest 147 169 8,100  Level Atlanta Center
Fri 05:16:17 PM 33.8464 -86.3883 313° West 147 169 8,100  Level Memphis Center
Fri 05:17:19 PM 33.8733 -86.4253 311° West 147 169 8,100  Level Memphis Center
Fri 05:18:21 PM 33.9003 -86.4628 311° West 147 169 8,100 -49 Level Memphis Center
Fri 05:19:22 PM 33.9283 -86.5047 309° West 146 168 8,000 -32 Descending Atlanta Center
Fri 05:21:28 PM 33.9886 -86.5803 314° West 147 169 8,000  Level Memphis Center
Fri 05:22:30 PM 34.0181 -86.6183 313° West 148 170 8,000  Level Memphis Center
Fri 05:23:32 PM 34.0464 -86.6542 314° West 148 170 8,000  Level Memphis Center
Fri 05:24:34 PM 34.0739 -86.6919 311° West 149 171 8,000  Level Memphis Center
Fri 05:25:36 PM 34.1008 -86.7289 311° West 149 171 8,000  Level Memphis Center
Fri 05:26:38 PM 34.1289 -86.7658 313° West 149 171 8,000 -145 Level Memphis Center
Fri 05:27:40 PM 34.1619 -86.8108 312° West 148 170 7,700 -290 Descending Memphis Center
Fri 05:28:42 PM 34.1922 -86.8531 311° West 157 181 7,400 -242 Descending Memphis Center
Fri 05:29:44 PM 34.2225 -86.8933 312° West 160 184 7,200 -290 Descending Memphis Center
Fri 05:30:46 PM 34.2511 -86.9317 312° West 160 184 6,800 -339 Descending Memphis Center
Fri 05:31:48 PM 34.2817 -86.9722 312° West 160 184 6,500 -290 Descending Memphis Center
Fri 05:32:50 PM 34.3119 -87.0139 311° West 162 186 6,200 -435 Descending Memphis Center
Fri 05:33:52 PM 34.3481 -87.0644 311° West 162 186 5,600 -528 Descending Memphis Center
Fri 05:34:55 PM 34.3803 -87.1064 313° West 166 191 5,100 -480 Descending Memphis Center
Fri 05:35:57 PM 34.4128 -87.1469 314° West 167 192 4,600 -532 Descending Memphis Center
Fri 05:36:59 PM 34.4475 -87.1883 315° West 169 194 4,000 -484 Descending Memphis Center
Fri 05:38:01 PM 34.4800 -87.2269 316° Northwest 169 194 3,600 -339 Descending Memphis Center
Fri 05:39:03 PM 34.5158 -87.2722 314° West 162 186 3,300 -194 Descending Memphis Center
Fri 05:40:05 PM 34.5456 -87.3100 314° West 159 183 3,200 -97 Descending Memphis Center
Fri 05:41:07 PM 34.5756 -87.3467 315° West 159 183 3,100 -97 Descending Memphis Center
Fri 05:42:09 PM 34.6056 -87.3833 315° West 159 183 3,000  Descending Memphis Center
Fri 05:43:11 PM 34.6339 -87.4186 314° West 153 176 3,100 -48 Climbing Memphis Center
Fri 05:44:13 PM 34.6494 -87.4706 290° West 149 171 2,900 -194 Descending Memphis Center

Login

Don't have an account? Register now (free) for customized features, flight alerts, and more!